• Join FlightAware (Why Join?)
  • Login
  • US Flag 
10:09AM EDT


 

Airport Tracker/Info


-or-


 

Live Flight TrackerFlight Track Log ✈ UPS2774 ✈ 24-Jul-2013 ✈ KSDF - KIAH

Flight Track Log - Related Links

Times and Time Zones

All times are in EDT time to prevent confusion due to time zone crossing. See the UPS2774 flight status page for this flight to view local times or setup timezone preferences in your user account.

Time Position Orientation Groundspeed Altitude Reporting Facility
EDT Latitude Longitude Course Direction KTS MPH feet Rate Location/Type
04:43PM 38.1710 -85.7400 292° West 26 30  Level FlightAware
04:43PM 38.1710 -85.7410 270° West 30 35 180 Level FlightAware
04:44PM 38.1710 -85.7420 270° West 26 30 180 Level FlightAware
04:44PM 38.1700 -85.7420 180° South 34 39 180 Level FlightAware
04:44PM 38.1680 -85.7410 159° South 20 23 180 Level FlightAware
04:45PM 38.1640 -85.7390 159° South 18 21 240 Level FlightAware
04:48PM 38.0667 -85.8858 270° West  Level FlightAware Approximate
04:49PM 38.0241 -86.0078 234° Southwest  Level FlightAware Approximate
04:50PM 37.9583 -86.1195 233° Southwest  Level FlightAware Approximate
04:51PM 37.8894 -86.2273 218° Southwest  Level FlightAware Approximate
04:52PM 37.7837 -86.2619 193° South  Level FlightAware Approximate
04:53PM 37.6765 -86.2924 193° South  Level FlightAware Approximate
04:54PM 37.5685 -86.3181 190° South  Level FlightAware Approximate
04:55PM 37.4607 -86.3446 193° South  Level FlightAware Approximate
04:56PM 37.3538 -86.3765 195° South  Level FlightAware Approximate
04:56PM 38.2080 -85.7580 341° North 171 197 2,900  Level FlightAware
04:57PM 38.2270 -85.7740 327° Northwest 199 229 4,000 2,160 Climbing FlightAware
04:57PM 38.2490 -85.7900 330° Northwest 242 278 4,800 2,880 Climbing FlightAware
04:57PM 38.2760 -85.8180 321° Northwest 259 298 6,600 3,360 Climbing FlightAware
04:58PM 38.2830 -85.8420 290° West 274 315 7,400 3,540 Climbing FlightAware
04:58PM 38.2740 -85.8840 255° West 289 333 9,200 3,120 Climbing FlightAware
04:58PM 38.2590 -85.9050 228° Southwest 298 343 9,700 1,080 Climbing FlightAware
04:59PM 38.2260 -85.9330 214° Southwest 324 373 10,000 960 Climbing FlightAware
05:00PM 38.1730 -85.9820 216° Southwest 380 437 10,800 2,220 Climbing FlightAware
05:00PM 38.1150 -86.0370 217° Southwest 392 451 13,000 3,420 Climbing FlightAware
05:01PM 38.0570 -86.0930 217° Southwest 393 452 15,400 3,180 Climbing FlightAware
05:02PM 37.9930 -86.1530 216° Southwest 405 466 17,500 2,520 Climbing FlightAware
05:02PM 37.9220 -86.2190 216° Southwest 426 490 19,200 2,520 Climbing FlightAware
05:03PM 37.8620 -86.2530 204° Southwest 434 499 20,800 2,460 Climbing FlightAware
05:04PM 37.7810 -86.2740 192° South 450 518 22,200 2,160 Climbing FlightAware
05:04PM 37.6930 -86.2960 191° South 458 527 23,800 2,220 Climbing FlightAware
05:05PM 37.5980 -86.3210 192° South 463 533 25,500 1,920 Climbing FlightAware
05:06PM 37.5130 -86.3420 191° South 474 545 26,600 1,680 Climbing FlightAware
05:06PM 37.4260 -86.3640 191° South 481 554 27,800 1,680 Climbing FlightAware
05:07PM 37.3270 -86.3890 191° South 489 563 29,000 1,680 Climbing FlightAware
05:08PM 37.2450 -86.4100 192° South 487 560 30,200 1,980 Climbing FlightAware
05:08PM 37.1524 -86.4329 191° South 488 562 31,600 1,860 Climbing FlightAware ADS-B
05:09PM 37.0590 -86.4560 191° South 483 556 32,800 840 Climbing FlightAware
05:10PM 36.9460 -86.4840 191° South 486 559 33,000 120 Climbing FlightAware
05:10PM 36.8910 -86.4983 192° South 487 560 33,000  Level FlightAware ADS-B
05:11PM 36.8235 -86.5152 191° South 486 559 33,000  Level FlightAware ADS-B
05:12PM 36.7519 -86.5330 191° South 484 557 33,000  Level FlightAware ADS-B
05:12PM 36.6860 -86.5494 191° South 482 555 33,000 660 Level FlightAware ADS-B
05:13PM 36.6208 -86.5656 191° South 471 542 33,700 1,560 Climbing FlightAware ADS-B
05:13PM 36.5529 -86.5822 191° South 464 534 34,700 1,500 Climbing FlightAware ADS-B
05:14PM 36.4294 -86.6128 191° South 454 522 36,000 660 Climbing FlightAware ADS-B
05:15PM 36.3220 -86.6395 191° South 454 522 36,000  Level FlightAware ADS-B
05:16PM 36.2245 -86.6637 191° South 463 533 36,000  Level FlightAware ADS-B
05:16PM 36.1825 -86.6818 199° South 449 517 36,000  Level FlightAware ADS-B
05:16PM 36.1479 -86.7045 208° Southwest 442 509 36,000  Level FlightAware ADS-B
05:17PM 36.1078 -86.7410 216° Southwest 434 499 36,000  Level FlightAware ADS-B
05:17PM 36.0824 -86.7720 225° Southwest 429 494 36,000 1,080 Level FlightAware ADS-B
05:18PM 36.0185 -86.8706 231° Southwest 425 489 37,300 1,260 Climbing FlightAware ADS-B
05:19PM 35.9700 -86.9450 231° Southwest 417 480 38,000 600 Climbing FlightAware
05:19PM 35.9365 -86.9980 232° Southwest 413 475 38,000  Level FlightAware ADS-B
05:20PM 35.8675 -87.1050 232° Southwest 421 484 38,000  Level FlightAware ADS-B
05:21PM 35.8200 -87.1790 232° Southwest 416 479 38,000  Level FlightAware
05:21PM 35.7610 -87.2600 228° Southwest 422 486 38,000  Level FlightAware
05:22PM 35.7130 -87.3210 226° Southwest 416 479 38,000  Level FlightAware
05:22PM 35.6934 -87.3454 225° Southwest 417 480 38,000  Level FlightAware ADS-B
05:23PM 35.6512 -87.3985 226° Southwest 417 480 38,000  Level FlightAware ADS-B
05:23PM 35.6031 -87.4585 225° Southwest 419 482 38,000  Level FlightAware ADS-B
05:24PM 35.5470 -87.5280 225° Southwest 420 483 38,000  Level FlightAware
05:25PM 35.4940 -87.5950 226° Southwest 421 484 38,000  Level FlightAware
05:26PM 35.4330 -87.6710 225° Southwest 420 483 38,000  Level FlightAware
05:26PM 35.3760 -87.7420 225° Southwest 423 487 38,000  Level FlightAware
05:27PM 35.2750 -87.8660 225° Southwest 424 488 38,000  Level FlightAware
05:28PM 35.2310 -87.9210 226° Southwest 425 489 38,000  Level FlightAware
05:29PM 35.1680 -87.9990 225° Southwest 426 490 38,000  Level FlightAware
05:30PM 35.1050 -88.0760 225° Southwest 427 491 38,000  Level FlightAware
05:30PM 35.0522 -88.1375 225° Southwest 426 490 38,000  Level Memphis Center
05:31PM 34.9706 -88.2461 227° Southwest 426 490 38,000  Level Memphis Center
05:32PM 34.8867 -88.3494 225° Southwest 431 496 38,000  Level Memphis Center
05:33PM 34.8028 -88.4553 226° Southwest 431 496 38,000  Level Memphis Center
05:34PM 34.7336 -88.5656 233° Southwest 423 487 38,000  Level Memphis Center
05:35PM 34.6622 -88.6831 234° Southwest 423 487 38,000 -60 Level Memphis Center
05:36PM 34.5969 -88.8031 237° Southwest 428 493 37,900  Descending Memphis Center
05:37PM 34.5172 -88.9306 233° Southwest 433 498 38,000  Climbing Memphis Center
05:38PM 34.4347 -89.0350 226° Southwest 433 498 38,000 -60 Level Memphis Center
05:39PM 34.3503 -89.1369 225° Southwest 438 504 37,900  Descending Memphis Center
05:40PM 34.2617 -89.2389 224° Southwest 443 510 38,000  Climbing Memphis Center
05:41PM 34.1686 -89.3406 222° Southwest 448 516 38,000  Level Memphis Center
05:42PM 34.0794 -89.4444 224° Southwest 448 516 38,000  Level Memphis Center
05:43PM 33.9967 -89.5353 222° Southwest 448 516 38,000  Level Memphis Center
05:44PM 33.9075 -89.6389 224° Southwest 448 516 38,000  Level Memphis Center
05:45PM 33.8183 -89.7422 224° Southwest 448 516 38,000 -60 Level Memphis Center
05:46PM 33.7292 -89.8453 224° Southwest 442 509 37,900 -60 Descending Memphis Center
05:47PM 33.6419 -89.9431 223° Southwest 442 509 37,900  Level Memphis Center
05:48PM 33.5503 -90.0456 223° Southwest 449 517 38,000  Climbing Memphis Center
05:49PM 33.4586 -90.1481 223° Southwest 449 517 38,000  Level Memphis Center
05:50PM 33.3669 -90.2478 222° Southwest 449 517 38,000  Level Memphis Center
05:51PM 33.2753 -90.3497 223° Southwest 449 517 38,000  Level Memphis Center
05:52PM 33.1833 -90.4517 223° Southwest 449 517 38,000  Level Memphis Center
05:53PM 33.0808 -90.5631 222° Southwest 454 522 38,000  Level Memphis Center
05:54PM 32.9867 -90.6644 222° Southwest 454 522 38,000  Level Memphis Center
05:55PM 32.8947 -90.7631 222° Southwest 454 522 38,000 -60 Level Memphis Center
05:56PM 32.8003 -90.8664 223° Southwest 454 522 37,900 -60 Descending Memphis Center
05:57PM 32.7081 -90.9672 223° Southwest 454 522 37,900  Level Memphis Center
05:58PM 32.6136 -91.0700 223° Southwest 454 522 38,000  Climbing Memphis Center
05:59PM 32.5192 -91.1678 221° Southwest 454 522 38,000  Level Memphis Center
06:00PM 32.4244 -91.2728 223° Southwest 454 522 38,000  Level Memphis Center
06:01PM 32.3192 -91.3842 222° Southwest 461 531 38,000  Level Houston Center
06:03PM 32.2286 -91.4919 225° Southwest 462 532 38,000  Level Houston Center
06:04PM 32.1217 -91.6222 226° Southwest 462 532 38,000  Level Houston Center
06:05PM 32.0208 -91.7167 218° Southwest 463 533 38,000 -60 Level Houston Center
06:06PM 31.9142 -91.8022 214° Southwest 464 534 37,900 -60 Descending Houston Center
06:07PM 31.8039 -91.8817 211° Southwest 465 535 37,900  Level Houston Center
06:08PM 31.6917 -91.9594 211° Southwest 468 539 38,000  Climbing Houston Center
06:09PM 31.5817 -92.0642 219° Southwest 466 536 38,000 -60 Level Houston Center
06:15PM 31.0982 -92.8596 219° Southwest 480 552 37,700 -120 Descending FlightAware ADS-B
06:15PM 31.0451 -92.9082 218° Southwest 482 555 37,400 -660 Descending FlightAware ADS-B
06:16PM 30.9847 -92.9628 218° Southwest 483 556 37,000 -660 Descending FlightAware ADS-B
06:17PM 30.9271 -93.0149 218° Southwest 482 555 36,700 -2,040 Descending FlightAware ADS-B
06:23PM 30.4487 -93.8896 238° Southwest 464 534 22,600 -2,280 Descending FlightAware ADS-B
06:24PM 30.4159 -93.9526 239° Southwest 454 522 20,700 -3,600 Descending FlightAware ADS-B
06:24PM 30.3838 -94.0142 239° Southwest 439 505 19,000 -3,240 Descending FlightAware ADS-B
06:25PM 30.3509 -94.0756 238° Southwest 415 478 17,400 -2,940 Descending FlightAware ADS-B
06:26PM 30.2928 -94.1844 239° Southwest 389 448 14,500 -2,760 Descending FlightAware ADS-B
06:26PM 30.2733 -94.2201 238° Southwest 389 448 13,700 -2,220 Descending FlightAware ADS-B
06:26PM 30.2624 -94.2422 240° Southwest 387 445 13,300 -2,040 Descending FlightAware ADS-B
06:26PM 30.2579 -94.2529 244° Southwest 385 443 13,100 -1,380 Descending FlightAware ADS-B
06:27PM 30.2365 -94.3082 246° West 349 402 12,500 -1,260 Descending FlightAware ADS-B
06:28PM 30.1974 -94.4076 246° West 301 346 11,200 -1,140 Descending FlightAware ADS-B
06:28PM 30.1794 -94.4502 244° Southwest 285 328 10,800 -960 Descending FlightAware ADS-B
06:29PM 30.1539 -94.5131 245° Southwest 276 318 10,000 -1,080 Descending FlightAware ADS-B
06:29PM 30.1457 -94.5334 245° Southwest 272 313 9,700 -1,020 Descending FlightAware ADS-B
06:30PM 30.1378 -94.5530 245° Southwest 272 313 9,500 -900 Descending FlightAware ADS-B
06:30PM 30.1214 -94.5940 245° Southwest 269 310 9,000 -900 Descending FlightAware ADS-B
06:31PM 30.1082 -94.6274 245° Southwest 268 308 8,700 -720 Descending FlightAware ADS-B
06:31PM 30.1035 -94.6398 246° West 267 307 8,600 -900 Descending FlightAware ADS-B
06:31PM 30.0933 -94.6727 251° West 265 305 8,200 -360 Descending FlightAware ADS-B
06:33PM 30.0590 -94.7833 250° West 264 304 8,000 -240 Descending FlightAware ADS-B
06:33PM 30.0410 -94.8429 251° West 259 298 7,800 -780 Descending FlightAware ADS-B
06:34PM 30.0303 -94.8791 251° West 258 297 7,100 -1,620 Descending FlightAware ADS-B
06:34PM 30.0192 -94.9157 251° West 258 297 6,300 -1,500 Descending FlightAware ADS-B
06:35PM 30.0103 -94.9454 251° West 254 292 5,800 -1,020 Descending FlightAware ADS-B
06:35PM 30.0000 -94.9778 250° West 238 274 5,500 -780 Descending FlightAware ADS-B
06:35PM 29.9957 -94.9932 255° West 233 268 5,300 -1,080 Descending FlightAware ADS-B
06:35PM 29.9948 -94.9979 258° West 231 266 5,200 -1,020 Descending FlightAware ADS-B
06:36PM 29.9939 -95.0076 265° West 229 264 5,100 -480 Descending FlightAware ADS-B
06:36PM 29.9934 -95.0415 268° West 204 235 4,900 -900 Descending FlightAware ADS-B
06:37PM 29.9930 -95.0751 270° West 202 232 4,200 -1,320 Descending FlightAware ADS-B
06:37PM 29.9932 -95.0911 271° West 193 222 3,900 -1,020 Descending FlightAware ADS-B
06:37PM 29.9933 -95.1073 270° West 188 216 3,700 -900 Descending FlightAware ADS-B
06:37PM 29.9933 -95.1264 270° West 191 220 3,400 -1,020 Descending FlightAware ADS-B
06:38PM 29.9934 -95.1435 270° West 187 215 3,100 -1,080 Descending FlightAware ADS-B
06:38PM 29.9934 -95.1603 270° West 188 216 2,800 -900 Descending FlightAware ADS-B
06:39PM 29.9935 -95.1945 270° West 157 181 2,300 -840 Descending FlightAware ADS-B
06:39PM 29.9934 -95.2119 270° West 157 181 2,000 -780 Descending FlightAware ADS-B
06:39PM 29.9935 -95.2268 270° West 158 182 1,800 -840 Descending FlightAware ADS-B
06:39PM 29.9933 -95.2368 269° West 155 178 1,600 -1,080 Descending FlightAware ADS-B
06:40PM 29.9933 -95.2456 270° West 155 178 1,400 -960 Descending FlightAware ADS-B
06:40PM 29.9934 -95.2524 271° West 154 177 1,300 -600 Descending FlightAware ADS-B
06:40PM 29.9935 -95.2623 271° West 152 175 1,200 -600 Descending FlightAware ADS-B
06:40PM 29.9935 -95.2695 270° West 155 178 1,100 -780 Descending FlightAware ADS-B
06:40PM 29.9935 -95.2824 270° West 159 183 900 -780 Descending FlightAware ADS-B
06:41PM 29.9934 -95.2964 270° West 152 175 700 -960 Descending FlightAware ADS-B
06:41PM 29.9935 -95.3092 271° West 150 173 400 -960 Descending FlightAware ADS-B
06:41PM 29.9935 -95.3166 270° West 151 174 300 -720 Descending FlightAware ADS-B
06:41PM 29.9935 -95.3238 270° West 158 182 200 -720 Descending FlightAware ADS-B